createdAt,value
2019-02-11T00:00:33.995Z,11.7
2019-02-11T00:01:35.244Z,11.8
2019-02-11T00:02:36.517Z,11.9
2019-02-11T00:03:37.759Z,11.5
2019-02-11T00:04:39.044Z,11.7
2019-02-11T00:05:40.283Z,11.4
2019-02-11T00:06:41.771Z,11.3
2019-02-11T00:07:45.241Z,11.3
2019-02-11T00:08:46.533Z,11.4
2019-02-11T00:09:48.615Z,11.4
2019-02-11T00:10:49.872Z,11.2
2019-02-11T00:11:51.335Z,11.1
2019-02-11T00:12:55.445Z,11.2
2019-02-11T00:13:56.699Z,11.4
2019-02-11T00:14:57.947Z,11.5
2019-02-11T00:15:59.255Z,11.1
2019-02-11T00:17:00.511Z,11
2019-02-11T00:18:01.795Z,10.9
2019-02-11T00:19:03.035Z,10.9
2019-02-11T00:20:04.296Z,10.9
2019-02-11T00:21:05.540Z,11.1
2019-02-11T00:22:06.836Z,10.7
2019-02-11T00:23:08.107Z,10.9
2019-02-11T00:24:09.378Z,11
2019-02-11T00:25:10.860Z,11.3
2019-02-11T00:26:12.113Z,11
2019-02-11T00:27:13.581Z,10.8
2019-02-11T00:28:15.094Z,10.5
2019-02-11T00:29:16.393Z,10.8
2019-02-11T00:30:17.631Z,10.8
2019-02-11T00:31:18.946Z,10.9
2019-02-11T00:32:20.251Z,10.9
2019-02-11T00:33:21.540Z,10.6
2019-02-11T00:34:22.777Z,10.9
2019-02-11T00:35:24.027Z,10.4
2019-02-11T00:36:25.271Z,10.5
2019-02-11T00:37:26.866Z,10.4
2019-02-11T00:38:28.166Z,10.7
2019-02-11T00:39:30.642Z,10.6
2019-02-11T00:40:32.160Z,10.7
2019-02-11T00:41:33.407Z,10.4
2019-02-11T00:42:34.659Z,10.5
2019-02-11T00:43:35.947Z,10.8
2019-02-11T00:44:37.202Z,10.4
2019-02-11T00:45:38.434Z,10.5
2019-02-11T00:46:39.655Z,10.3
2019-02-11T00:47:40.911Z,10.1
2019-02-11T00:48:42.189Z,9.9
2019-02-11T00:49:43.421Z,10.2
2019-02-11T00:50:44.665Z,10.4
2019-02-11T00:51:46.169Z,10.6
2019-02-11T00:52:47.441Z,10.6
2019-02-11T00:53:48.710Z,10.4
2019-02-11T00:54:49.959Z,10.4
2019-02-11T00:55:51.325Z,10
2019-02-11T00:56:52.577Z,10
2019-02-11T00:57:53.823Z,10
2019-02-11T00:58:55.415Z,9.9
2019-02-11T00:59:56.677Z,9.9
2019-02-11T01:00:57.944Z,10.2
2019-02-11T01:01:59.351Z,10.3
2019-02-11T01:03:00.607Z,10.1
2019-02-11T01:04:01.911Z,9.9
2019-02-11T01:05:03.157Z,10
2019-02-11T01:06:04.405Z,9.7
2019-02-11T01:07:05.649Z,9.6
2019-02-11T01:08:08.431Z,9.6
2019-02-11T01:09:09.712Z,9.8
2019-02-11T01:10:10.955Z,9.8
2019-02-11T01:11:12.189Z,10.1
2019-02-11T01:12:13.469Z,10.1
2019-02-11T01:13:14.711Z,10
2019-02-11T01:14:16.358Z,9.9
2019-02-11T01:15:17.599Z,9.8
2019-02-11T01:16:18.827Z,10
2019-02-11T01:17:20.102Z,10
2019-02-11T01:18:21.359Z,9.9
2019-02-11T01:19:22.629Z,9.7
2019-02-11T01:20:24.149Z,9.7
2019-02-11T01:21:25.390Z,9.9
2019-02-11T01:22:26.635Z,9.7
2019-02-11T01:23:27.875Z,9.8
2019-02-11T01:24:29.155Z,9.8
2019-02-11T01:25:30.383Z,9.4
2019-02-11T01:26:31.640Z,9.4
2019-02-11T01:27:32.875Z,9.9
2019-02-11T01:28:34.125Z,9.9
2019-02-11T01:29:35.392Z,9.8
2019-02-11T01:30:38.993Z,9.9
2019-02-11T01:31:40.248Z,10
2019-02-11T01:32:41.600Z,9.6
2019-02-11T01:33:45.618Z,9.4
2019-02-11T01:34:46.897Z,9.6
2019-02-11T01:35:48.150Z,9.6
2019-02-11T01:36:49.404Z,9.7
2019-02-11T01:37:50.671Z,9.7
2019-02-11T01:38:51.905Z,9.6
2019-02-11T01:39:53.159Z,9.6
2019-02-11T01:40:54.458Z,9.4
2019-02-11T01:41:55.700Z,9.3
2019-02-11T01:42:56.942Z,9.4
2019-02-11T01:43:58.188Z,9.4
2019-02-11T01:44:59.502Z,9.2
2019-02-11T01:46:00.889Z,9.1
2019-02-11T01:47:02.135Z,9.2
2019-02-11T01:48:03.383Z,9.7
2019-02-11T01:49:04.606Z,9.5
2019-02-11T01:50:05.894Z,9.7
2019-02-11T01:51:07.156Z,9.5
2019-02-11T01:52:08.617Z,9.7
2019-02-11T01:53:10.105Z,9.8
2019-02-11T01:54:11.415Z,9.8
2019-02-11T01:55:12.678Z,9.4
2019-02-11T01:56:13.928Z,9.2
2019-02-11T01:57:15.193Z,9.7
2019-02-11T01:58:16.421Z,9.8
2019-02-11T01:59:17.673Z,9.9
2019-02-11T02:00:18.944Z,9.6
2019-02-11T02:01:20.183Z,9.7
2019-02-11T02:02:21.422Z,9.6
2019-02-11T02:03:22.662Z,9.3
2019-02-11T02:04:23.920Z,9.3
2019-02-11T02:05:25.190Z,9.4
2019-02-11T02:06:26.674Z,9.4
2019-02-11T02:07:27.935Z,9.5
2019-02-11T02:08:29.170Z,9.7
2019-02-11T02:09:30.421Z,9.7
2019-02-11T02:10:31.708Z,9.7
2019-02-11T02:11:33.244Z,9.3
2019-02-11T02:12:34.496Z,9.3
2019-02-11T02:13:35.734Z,9.1
2019-02-11T02:14:45.270Z,8.9
2019-02-11T02:15:46.580Z,9.1
2019-02-11T02:16:47.816Z,9.1
2019-02-11T02:17:49.080Z,9.3
2019-02-11T02:18:50.349Z,9.7
2019-02-11T02:19:51.597Z,9.6
2019-02-11T02:20:52.888Z,9.6
2019-02-11T02:21:54.140Z,9.4
2019-02-11T02:22:55.658Z,9.5
2019-02-11T02:23:56.912Z,9.3
2019-02-11T02:24:58.157Z,9.2
2019-02-11T02:25:59.457Z,9.5
2019-02-11T02:27:00.714Z,9.6
2019-02-11T02:28:01.962Z,9.5
2019-02-11T02:29:03.212Z,9.6
2019-02-11T02:30:04.472Z,9.5
2019-02-11T02:31:05.800Z,9.2
2019-02-11T02:32:07.062Z,9.3
2019-02-11T02:33:08.305Z,9.3
2019-02-11T02:34:09.576Z,9.2
2019-02-11T02:35:10.840Z,9.1
2019-02-11T02:36:12.156Z,9.2
2019-02-11T02:37:13.384Z,9.2
2019-02-11T02:38:14.665Z,9.2
2019-02-11T02:39:15.954Z,9.2
2019-02-11T02:40:17.214Z,9.1
2019-02-11T02:41:18.484Z,8.9
2019-02-11T02:42:19.734Z,9.3
2019-02-11T02:43:20.994Z,9.4
2019-02-11T02:44:22.243Z,9.2
2019-02-11T02:45:23.482Z,9.1
2019-02-11T02:46:24.784Z,9.1
2019-02-11T02:47:26.046Z,9.1
2019-02-11T02:48:27.282Z,9.1
2019-02-11T02:49:28.528Z,9.3
2019-02-11T02:50:30.535Z,9
2019-02-11T02:51:31.842Z,9
2019-02-11T02:52:33.386Z,9.1
2019-02-11T02:53:34.624Z,9.4
2019-02-11T02:54:35.887Z,9.5
2019-02-11T02:55:37.134Z,9.4
2019-02-11T02:56:38.420Z,9.5
2019-02-11T02:57:40.385Z,9.4
2019-02-11T02:58:41.642Z,9.2
2019-02-11T02:59:42.916Z,9.5
2019-02-11T03:00:44.181Z,9.4
2019-02-11T03:01:45.736Z,9.5
2019-02-11T03:02:46.968Z,9.2
2019-02-11T03:03:48.232Z,9.3
2019-02-11T03:04:49.484Z,9.3
2019-02-11T03:05:52.795Z,9.3
2019-02-11T03:06:54.351Z,9.1
2019-02-11T03:07:55.625Z,9.2
2019-02-11T03:08:56.896Z,9.3
2019-02-11T03:09:58.162Z,9.3
2019-02-11T03:10:59.391Z,9
2019-02-11T03:12:00.663Z,9.1
2019-02-11T03:13:01.911Z,9
2019-02-11T03:14:05.564Z,9.2
2019-02-11T03:15:07.264Z,9.1
2019-02-11T03:16:08.525Z,8.9
2019-02-11T03:17:09.807Z,9.1
2019-02-11T03:18:11.067Z,9
2019-02-11T03:19:12.307Z,9
2019-02-11T03:20:13.557Z,9.1
2019-02-11T03:21:14.796Z,9.4
2019-02-11T03:22:16.065Z,9.3
2019-02-11T03:23:17.324Z,9.4
2019-02-11T03:24:18.652Z,9.3
2019-02-11T03:25:19.893Z,9.4
2019-02-11T03:26:21.147Z,9.3
2019-02-11T03:27:22.447Z,9.4
2019-02-11T03:28:23.708Z,9.7
2019-02-11T03:29:24.959Z,9.7
2019-02-11T03:30:26.220Z,9.4
2019-02-11T03:31:27.492Z,9.4
2019-02-11T03:32:28.830Z,9.3
2019-02-11T03:33:30.472Z,9.4
2019-02-11T03:34:31.734Z,9.3
2019-02-11T03:35:32.983Z,9.4
2019-02-11T03:36:34.236Z,9.4
2019-02-11T03:37:35.538Z,9.7
2019-02-11T03:38:36.788Z,10
2019-02-11T03:39:38.059Z,9.8
2019-02-11T03:40:39.295Z,9.6
2019-02-11T03:41:40.533Z,9.4
2019-02-11T03:42:41.813Z,9.5
2019-02-11T03:43:43.039Z,9.4
2019-02-11T03:44:44.293Z,9.6
2019-02-11T03:45:45.565Z,9.4
2019-02-11T03:46:46.820Z,9.4
2019-02-11T03:47:48.115Z,9.6
2019-02-11T03:48:49.356Z,9.7
2019-02-11T03:49:50.622Z,9.7
2019-02-11T03:50:51.861Z,9.6
2019-02-11T03:51:53.100Z,9.7
2019-02-11T03:52:54.401Z,9.8
2019-02-11T03:53:58.067Z,9.5
2019-02-11T03:54:59.415Z,9.8
2019-02-11T03:56:00.654Z,9.8
2019-02-11T03:57:01.909Z,9.5
2019-02-11T03:58:03.194Z,9.4
2019-02-11T03:59:04.431Z,9.4
2019-02-11T04:00:05.781Z,9.4
2019-02-11T04:01:09.791Z,9.4
2019-02-11T04:02:11.033Z,9.5
2019-02-11T04:03:12.333Z,9.5
2019-02-11T04:04:13.567Z,9.3
2019-02-11T04:05:14.815Z,9.6
2019-02-11T04:06:16.445Z,9.4
2019-02-11T04:07:17.721Z,9.4
2019-02-11T04:08:20.673Z,9.3
2019-02-11T04:09:21.909Z,9.3
2019-02-11T04:10:23.369Z,9.4
2019-02-11T04:11:24.605Z,9.2
2019-02-11T04:12:25.921Z,9.5
2019-02-11T04:13:27.211Z,9.4
2019-02-11T04:14:28.451Z,9.4
2019-02-11T04:15:29.701Z,9.4
2019-02-11T04:16:30.994Z,9.5
2019-02-11T04:17:34.468Z,9.2
2019-02-11T04:18:35.771Z,9.3
2019-02-11T04:19:37.282Z,9.3
2019-02-11T04:20:38.532Z,9.4
2019-02-11T04:21:40.046Z,9.4
2019-02-11T04:22:41.285Z,9.5
2019-02-11T04:23:42.563Z,9.4
2019-02-11T04:24:43.805Z,9.3
2019-02-11T04:25:45.081Z,9.5
2019-02-11T04:26:46.310Z,9.6
2019-02-11T04:27:47.563Z,9.4
2019-02-11T04:28:48.841Z,9.3
2019-02-11T04:29:50.089Z,9.4
2019-02-11T04:30:51.649Z,9.3
2019-02-11T04:31:52.886Z,9.4
2019-02-11T04:32:54.134Z,9.4
2019-02-11T04:33:57.852Z,9.3
2019-02-11T04:34:59.519Z,9.7
2019-02-11T04:36:01.054Z,9.5
2019-02-11T04:37:02.291Z,9.6
2019-02-11T04:38:03.522Z,9.4
2019-02-11T04:39:04.793Z,9.6
2019-02-11T04:40:06.046Z,9.8
2019-02-11T04:41:07.270Z,9.6
2019-02-11T04:42:08.553Z,9.4
2019-02-11T04:43:09.798Z,9.5
2019-02-11T04:44:11.084Z,9.4
2019-02-11T04:45:12.341Z,9.7
2019-02-11T04:46:13.599Z,9.6
2019-02-11T04:47:14.835Z,9.8
2019-02-11T04:48:16.076Z,9.8
2019-02-11T04:49:17.394Z,9.8
2019-02-11T04:50:18.653Z,9.8
2019-02-11T04:51:19.916Z,9.9
2019-02-11T04:52:21.170Z,9.8
2019-02-11T04:53:22.437Z,9.6
2019-02-11T04:54:23.728Z,9.9
2019-02-11T04:55:25.034Z,10
2019-02-11T04:56:26.269Z,9.8
2019-02-11T04:57:27.623Z,9.9
2019-02-11T04:58:28.878Z,10.1
2019-02-11T04:59:30.208Z,9.9
2019-02-11T05:00:31.455Z,9.9
2019-02-11T05:01:32.744Z,10
2019-02-11T05:02:33.975Z,10.1
2019-02-11T05:03:35.238Z,10
2019-02-11T05:04:37.237Z,9.8
2019-02-11T05:05:38.502Z,10.1
2019-02-11T05:06:39.806Z,10.2
2019-02-11T05:07:41.169Z,10.1
2019-02-11T05:08:42.401Z,10.4
2019-02-11T05:09:43.660Z,10.3
2019-02-11T05:10:44.911Z,10.4
2019-02-11T05:11:48.412Z,10.2
2019-02-11T05:12:49.655Z,10.2
2019-02-11T05:13:50.896Z,10.2
2019-02-11T05:14:52.164Z,10.4
2019-02-11T05:15:53.420Z,10.5
2019-02-11T05:16:54.659Z,10.3
2019-02-11T05:17:55.900Z,10.4
2019-02-11T05:18:57.322Z,10.2
2019-02-11T05:19:58.653Z,10.1
2019-02-11T05:20:59.894Z,10
2019-02-11T05:22:01.134Z,10.2
2019-02-11T05:23:02.378Z,10.1
2019-02-11T05:24:03.639Z,10.4
2019-02-11T05:25:04.937Z,10.2
2019-02-11T05:26:06.190Z,10.2
2019-02-11T05:27:07.786Z,10.5
2019-02-11T05:28:09.023Z,10.7
2019-02-11T05:29:10.297Z,10.6
2019-02-11T05:30:11.659Z,10.7
2019-02-11T05:31:12.913Z,10.5
2019-02-11T05:32:14.150Z,10.5
2019-02-11T05:33:15.453Z,10.4
2019-02-11T05:34:16.744Z,10.1
2019-02-11T05:35:18.085Z,10.4
2019-02-11T05:36:19.348Z,10.4
2019-02-11T05:37:20.622Z,10.4
2019-02-11T05:38:21.918Z,10.5
2019-02-11T05:39:23.171Z,10.7
2019-02-11T05:40:24.463Z,10.7
2019-02-11T05:41:25.794Z,10.7
2019-02-11T05:42:27.032Z,10.7
2019-02-11T05:43:28.308Z,10.6
2019-02-11T05:44:29.600Z,10.4
2019-02-11T05:45:31.020Z,10.9
2019-02-11T05:46:32.350Z,10.9
2019-02-11T05:47:33.755Z,10.8
2019-02-11T05:48:35.058Z,10.9
2019-02-11T05:49:36.304Z,10.9
2019-02-11T05:50:38.924Z,11
2019-02-11T05:51:40.173Z,10.9
2019-02-11T05:52:41.731Z,10.8
2019-02-11T05:53:42.986Z,10.6
2019-02-11T05:54:44.270Z,10.5
2019-02-11T05:55:45.597Z,10.5
2019-02-11T05:56:46.833Z,10.8
2019-02-11T05:57:48.086Z,10.8
2019-02-11T05:58:49.356Z,10.9
2019-02-11T05:59:50.624Z,10.7
2019-02-11T06:00:51.952Z,10.6
2019-02-11T06:01:53.298Z,10.9
2019-02-11T06:02:54.688Z,10.6
2019-02-11T06:03:55.940Z,10.7
2019-02-11T06:04:57.266Z,10.8
2019-02-11T06:05:58.590Z,10.7
2019-02-11T06:07:02.644Z,11.1
2019-02-11T06:08:03.930Z,10.9
2019-02-11T06:09:05.192Z,10.9
2019-02-11T06:10:06.505Z,10.7
2019-02-11T06:11:07.801Z,10.6
2019-02-11T06:12:09.056Z,10.7
2019-02-11T06:13:10.298Z,10.7
2019-02-11T06:14:11.609Z,11
2019-02-11T06:15:12.890Z,11.1
2019-02-11T06:16:14.162Z,10.9
2019-02-11T06:17:15.403Z,10.8
2019-02-11T06:18:16.660Z,10.6
2019-02-11T06:19:17.911Z,10.6
2019-02-11T06:20:19.164Z,11
2019-02-11T06:21:20.463Z,10.9
2019-02-11T06:22:21.744Z,10.6
2019-02-11T06:23:23.045Z,10.6
2019-02-11T06:24:24.344Z,10.4
2019-02-11T06:25:25.612Z,10.6
2019-02-11T06:26:26.940Z,10.8
2019-02-11T06:27:28.284Z,10.7
2019-02-11T06:28:29.518Z,10.6
2019-02-11T06:29:33.524Z,10.8
2019-02-11T06:30:34.780Z,10.5
2019-02-11T06:31:38.813Z,11.7
2019-02-11T06:32:40.150Z,13
2019-02-11T06:33:41.468Z,14.1
2019-02-11T06:34:42.752Z,14.8
2019-02-11T06:35:44.241Z,15.2
2019-02-11T06:36:45.550Z,15.3
2019-02-11T06:37:46.821Z,15.4
2019-02-11T06:38:48.108Z,15.6
2019-02-11T06:39:49.564Z,15.8
2019-02-11T06:40:50.864Z,15.7
2019-02-11T06:41:52.178Z,15.6
2019-02-11T06:42:53.490Z,15.7
2019-02-11T06:43:56.876Z,15.7
2019-02-11T06:44:58.160Z,15.9
2019-02-11T06:46:02.285Z,15.9
2019-02-11T06:47:03.784Z,15.9
2019-02-11T06:48:05.037Z,15.8
2019-02-11T06:49:06.291Z,15.9
2019-02-11T06:50:07.566Z,15.7
2019-02-11T06:51:08.809Z,15.8
2019-02-11T06:52:10.144Z,15.7
2019-02-11T06:53:11.426Z,15.7
2019-02-11T06:54:13.172Z,15.7
2019-02-11T06:55:14.625Z,15.6
2019-02-11T06:56:15.919Z,15.6
2019-02-11T06:57:17.975Z,15.6
2019-02-11T06:58:19.253Z,15.6
2019-02-11T06:59:20.541Z,15.6
2019-02-11T07:00:21.795Z,15.4
2019-02-11T07:01:23.043Z,15.4
2019-02-11T07:02:24.826Z,15.3
2019-02-11T07:03:30.605Z,15.3
2019-02-11T07:04:31.872Z,15.2
2019-02-11T07:05:33.193Z,15.1
2019-02-11T07:06:34.481Z,15.1
2019-02-11T07:07:36.742Z,15.1
2019-02-11T07:08:38.163Z,15.1
2019-02-11T07:09:39.413Z,15.2
2019-02-11T07:10:40.680Z,15.2
2019-02-11T07:11:44.787Z,15.2
2019-02-11T07:12:49.275Z,15.4
2019-02-11T07:13:50.560Z,15.4
2019-02-11T07:14:51.819Z,15.4
2019-02-11T07:15:56.146Z,15.5
2019-02-11T07:16:57.599Z,15.7
2019-02-11T07:18:01.641Z,16.1
2019-02-11T07:19:04.191Z,16.3
2019-02-11T07:20:06.871Z,16.2
2019-02-11T07:21:08.129Z,16.1
2019-02-11T07:22:09.423Z,16.3
2019-02-11T07:23:10.689Z,16.3
2019-02-11T07:24:12.289Z,16.2
2019-02-11T07:25:16.446Z,16.2
2019-02-11T07:26:17.847Z,16.1
2019-02-11T07:27:19.427Z,16.2
2019-02-11T07:28:22.374Z,16.1
2019-02-11T07:29:23.629Z,16.2
2019-02-11T07:30:24.885Z,16
2019-02-11T07:31:26.164Z,16
2019-02-11T07:32:27.429Z,16
2019-02-11T07:33:28.767Z,16.1
2019-02-11T07:34:30.027Z,16.2
2019-02-11T07:35:31.303Z,16.2
2019-02-11T07:36:32.540Z,16.1
2019-02-11T07:37:36.373Z,16.1
2019-02-11T07:38:37.889Z,16.1
2019-02-11T07:39:46.445Z,16.1
2019-02-11T07:40:47.746Z,16.1
2019-02-11T07:41:52.077Z,16.1
2019-02-11T07:42:53.358Z,16.1
2019-02-11T07:43:54.705Z,16.2
2019-02-11T07:44:56.161Z,16.1
2019-02-11T07:45:57.620Z,16.1
2019-02-11T07:47:02.329Z,16.1
2019-02-11T07:48:03.961Z,16.2
2019-02-11T07:49:07.505Z,16.1
2019-02-11T07:50:08.779Z,16
2019-02-11T07:51:10.069Z,16
2019-02-11T07:52:11.350Z,16
2019-02-11T07:53:13.257Z,16.1
2019-02-11T07:54:14.567Z,16.1
2019-02-11T07:55:15.945Z,16.1
2019-02-11T07:56:17.279Z,16.1
2019-02-11T07:57:18.647Z,16.1
2019-02-11T07:58:20.101Z,16.1
2019-02-11T07:59:21.417Z,16.2
2019-02-11T08:00:24.823Z,16.1
2019-02-11T08:01:28.875Z,16.2
2019-02-11T08:02:30.161Z,16.1
2019-02-11T08:03:31.440Z,16.1
2019-02-11T08:04:32.739Z,16.1
2019-02-11T08:05:34.002Z,16.2
2019-02-11T08:06:35.279Z,16.3
2019-02-11T08:07:36.533Z,16.4
2019-02-11T08:08:37.808Z,16.4
2019-02-11T08:09:39.138Z,16.3
2019-02-11T08:10:40.379Z,16.3
2019-02-11T08:11:41.658Z,16.3
2019-02-11T08:12:43.235Z,16.3
2019-02-11T08:13:44.508Z,16.3
2019-02-11T08:14:45.811Z,16.3
2019-02-11T08:15:47.076Z,16.3
2019-02-11T08:16:49.389Z,16.4
2019-02-11T08:17:50.803Z,16.3
2019-02-11T08:18:52.288Z,16.4
2019-02-11T08:19:53.571Z,16.4
2019-02-11T08:20:56.484Z,16.4
2019-02-11T08:21:57.753Z,16.4
2019-02-11T08:22:59.281Z,16.4
2019-02-11T08:24:00.563Z,16.5
2019-02-11T08:25:02.027Z,16.5
2019-02-11T08:26:03.611Z,16.5
2019-02-11T08:27:06.898Z,16.5
2019-02-11T08:28:08.174Z,16.5
2019-02-11T08:29:09.474Z,16.4
2019-02-11T08:30:10.779Z,16.4
2019-02-11T08:31:12.109Z,16.5
2019-02-11T08:32:13.386Z,16.4
2019-02-11T08:33:14.664Z,16.5
2019-02-11T08:34:15.961Z,16.6
2019-02-11T08:35:17.286Z,16.5
2019-02-11T08:36:21.609Z,16.5
2019-02-11T08:37:24.226Z,16.5
2019-02-11T08:38:25.477Z,16.5
2019-02-11T08:39:26.974Z,16.5
2019-02-11T08:40:28.599Z,16.6
2019-02-11T08:41:29.866Z,16.5
2019-02-11T08:42:31.593Z,16.5
2019-02-11T08:43:35.334Z,16.5
2019-02-11T08:44:36.606Z,16.5
2019-02-11T08:45:38.237Z,16.5
2019-02-11T08:46:47.812Z,16.6
2019-02-11T08:47:49.081Z,16.5
2019-02-11T08:48:50.346Z,16.5
2019-02-11T08:49:54.472Z,16.6
2019-02-11T08:50:58.282Z,16.5
2019-02-11T08:52:02.662Z,16.5
2019-02-11T08:53:06.662Z,16.5
2019-02-11T08:54:08.214Z,16.4
2019-02-11T08:55:09.754Z,16.5
2019-02-11T08:56:11.027Z,16.5
2019-02-11T08:57:12.282Z,16.5
2019-02-11T08:58:13.638Z,16.5
2019-02-11T08:59:14.918Z,16.5
2019-02-11T09:00:16.242Z,16.6
2019-02-11T09:01:18.716Z,16.5
2019-02-11T09:02:20.041Z,16.5
2019-02-11T09:03:21.324Z,16.5
2019-02-11T09:04:23.220Z,16.6
2019-02-11T09:05:24.462Z,16.5
2019-02-11T09:06:25.767Z,16.5
2019-02-11T09:07:27.960Z,16.6
2019-02-11T09:08:29.216Z,16.6
2019-02-11T09:09:30.476Z,16.6
2019-02-11T09:10:31.953Z,16.5
2019-02-11T09:11:33.546Z,16.6
2019-02-11T09:12:34.838Z,16.6
2019-02-11T09:13:36.107Z,16.5
2019-02-11T09:14:37.387Z,16.5
2019-02-11T09:15:38.670Z,16.5
2019-02-11T09:16:41.859Z,16.6
2019-02-11T09:17:43.132Z,16.6
2019-02-11T09:18:44.741Z,16.5
2019-02-11T09:19:46.748Z,16.5
2019-02-11T09:20:48.020Z,16.5
2019-02-11T09:21:52.636Z,16.5
2019-02-11T09:22:53.934Z,16.5
2019-02-11T09:23:55.294Z,16.5
2019-02-11T09:24:56.604Z,16.5
2019-02-11T09:25:58.097Z,16.5
2019-02-11T09:26:59.460Z,16.5
2019-02-11T09:28:00.734Z,16.5
2019-02-11T09:29:04.684Z,16.4
2019-02-11T09:30:06.020Z,16.5
2019-02-11T09:31:07.258Z,16.5
2019-02-11T09:32:09.824Z,16.4
2019-02-11T09:33:11.106Z,16.5
2019-02-11T09:34:12.369Z,16.5
2019-02-11T09:35:13.670Z,16.5
2019-02-11T09:36:17.288Z,16.5
2019-02-11T09:37:18.656Z,16.6
2019-02-11T09:38:20.155Z,16.5
2019-02-11T09:39:21.444Z,16.6
2019-02-11T09:40:22.811Z,16.5
2019-02-11T09:41:24.118Z,16.5
2019-02-11T09:42:25.647Z,16.4
2019-02-11T09:43:26.930Z,16.5
2019-02-11T09:44:29.571Z,16.5
2019-02-11T09:45:32.684Z,16.5
2019-02-11T09:46:34.031Z,16.5
2019-02-11T09:47:35.582Z,16.4
2019-02-11T09:48:36.914Z,16.5
2019-02-11T09:49:38.192Z,16.4
2019-02-11T09:50:39.506Z,16.4
2019-02-11T09:51:41.252Z,16.4
2019-02-11T09:52:43.769Z,16.3
2019-02-11T09:53:45.054Z,16.4
2019-02-11T09:54:46.334Z,16.4
2019-02-11T09:55:47.598Z,16.4
2019-02-11T09:56:48.876Z,16.4
2019-02-11T09:57:51.094Z,16.4
2019-02-11T09:58:52.626Z,16.4
2019-02-11T09:59:53.916Z,16.5
2019-02-11T10:00:55.579Z,16.4
2019-02-11T10:02:01.060Z,16.4
2019-02-11T10:03:02.386Z,16.4
2019-02-11T10:04:03.659Z,16.4
2019-02-11T10:05:05.146Z,16.4
2019-02-11T10:06:06.728Z,16.5
2019-02-11T10:07:08.299Z,16.4
2019-02-11T10:08:16.232Z,16.3
2019-02-11T10:09:20.629Z,16.3
2019-02-11T10:10:21.897Z,16.3
2019-02-11T10:11:23.391Z,16.4
2019-02-11T10:12:24.658Z,16.5
2019-02-11T10:13:26.241Z,16.5
2019-02-11T10:14:29.949Z,16.4
2019-02-11T10:15:31.229Z,16.4
2019-02-11T10:16:32.763Z,16.4
2019-02-11T10:17:34.023Z,16.3
2019-02-11T10:18:35.322Z,16.3
2019-02-11T10:19:36.613Z,16.3
2019-02-11T10:20:37.892Z,16.4
2019-02-11T10:21:39.170Z,16.5
2019-02-11T10:22:40.435Z,16.5
2019-02-11T10:23:43.305Z,16.4
2019-02-11T10:24:44.558Z,16.5
2019-02-11T10:25:45.864Z,16.5
2019-02-11T10:26:47.251Z,16.5
2019-02-11T10:27:48.549Z,16.4
2019-02-11T10:28:50.101Z,16.6
2019-02-11T10:29:51.371Z,16.5
2019-02-11T10:30:52.676Z,16.6
2019-02-11T10:31:55.289Z,16.5
2019-02-11T10:33:00.083Z,16.5
2019-02-11T10:34:01.403Z,16.6
2019-02-11T10:35:03.089Z,16.6
2019-02-11T10:36:06.809Z,16.5
2019-02-11T10:38:19.584Z,16.5
2019-02-11T10:39:22.658Z,16.5
2019-02-11T10:40:23.919Z,16.5
2019-02-11T10:41:25.486Z,16.5
2019-02-11T10:42:34.472Z,16.5
2019-02-11T10:43:39.146Z,16.5
2019-02-11T10:44:40.447Z,16.6
2019-02-11T10:45:41.717Z,16.5
2019-02-11T10:46:44.351Z,16.5
2019-02-11T10:47:48.613Z,16.6
2019-02-11T10:48:50.973Z,16.6
2019-02-11T10:49:52.324Z,16.5
2019-02-11T10:50:53.577Z,16.5
2019-02-11T10:51:54.907Z,16.5
2019-02-11T10:52:56.299Z,16.6
2019-02-11T10:53:58.918Z,16.7
2019-02-11T10:55:00.222Z,16.7
2019-02-11T10:56:03.431Z,16.6
2019-02-11T10:57:04.685Z,16.6
2019-02-11T10:58:07.522Z,16.6
2019-02-11T10:59:08.809Z,16.6
2019-02-11T11:00:10.435Z,16.6
2019-02-11T11:01:13.205Z,16.7
2019-02-11T11:02:14.915Z,16.7
2019-02-11T11:03:16.203Z,16.8
2019-02-11T11:04:18.755Z,16.7
2019-02-11T11:05:20.086Z,16.7
2019-02-11T11:06:21.364Z,16.6
2019-02-11T11:07:22.663Z,16.6
2019-02-11T11:08:23.911Z,16.6
2019-02-11T11:09:25.937Z,16.6
2019-02-11T11:10:27.224Z,16.7
2019-02-11T11:11:28.887Z,16.6
2019-02-11T11:12:32.029Z,16.5
2019-02-11T11:13:33.314Z,16.5
2019-02-11T11:14:34.593Z,16.4
2019-02-11T11:15:36.123Z,16.4
2019-02-11T11:16:37.605Z,16.3
2019-02-11T11:17:38.865Z,16.3
2019-02-11T11:18:42.871Z,16.3
2019-02-11T11:19:44.133Z,16.3
2019-02-11T11:20:45.433Z,16.2
2019-02-11T11:21:49.681Z,16.2
2019-02-11T11:22:51.441Z,16.2
2019-02-11T11:23:54.801Z,16.2
2019-02-11T11:24:58.939Z,16.2
2019-02-11T11:26:00.612Z,16.2
2019-02-11T11:27:04.437Z,16.1
2019-02-11T11:28:11.631Z,16.1
2019-02-11T11:29:12.939Z,16.2
2019-02-11T11:30:14.243Z,16.3
2019-02-11T11:31:17.068Z,16.3
2019-02-11T11:32:19.652Z,16.4
2019-02-11T11:34:30.567Z,16.8
2019-02-11T11:35:34.198Z,16.9
2019-02-11T11:36:35.536Z,17
2019-02-11T11:37:36.975Z,17.2
2019-02-11T11:38:42.089Z,17.2
2019-02-11T11:39:43.387Z,17.3
2019-02-11T11:40:46.755Z,17.3
2019-02-11T11:43:10.293Z,17.2
2019-02-11T11:44:11.585Z,17.3
2019-02-11T11:45:14.208Z,17.3
2019-02-11T11:46:16.293Z,17.3
2019-02-11T11:47:17.679Z,17.4
2019-02-11T11:48:19.294Z,17.4
2019-02-11T11:49:20.654Z,17.5
2019-02-11T11:50:23.207Z,17.5
2019-02-11T11:51:27.258Z,17.6
2019-02-11T11:52:28.612Z,17.7
2019-02-11T11:53:29.904Z,17.8
2019-02-11T11:54:31.179Z,17.9
2019-02-11T11:55:32.859Z,17.9
2019-02-11T11:56:34.256Z,17.9
2019-02-11T11:57:37.609Z,17.9
2019-02-11T11:58:38.972Z,17.9
2019-02-11T11:59:41.312Z,17.9
2019-02-11T12:00:43.844Z,17.9
2019-02-11T12:01:45.301Z,18
2019-02-11T12:02:59.956Z,18
2019-02-11T12:04:06.498Z,18
2019-02-11T12:05:08.387Z,18
2019-02-11T12:06:09.728Z,18
2019-02-11T12:07:11.062Z,18.1
2019-02-11T12:08:12.390Z,18.1
2019-02-11T12:09:13.817Z,18.1
2019-02-11T12:10:15.611Z,18.2
2019-02-11T12:11:18.205Z,18.2
2019-02-11T12:12:21.094Z,18.2
2019-02-11T12:13:23.439Z,18.2
2019-02-11T12:14:25.290Z,18.1
2019-02-11T12:15:27.124Z,18.1
2019-02-11T12:16:29.397Z,18.1
2019-02-11T12:17:30.736Z,17.9
2019-02-11T12:18:32.155Z,18
2019-02-11T12:19:33.622Z,17.9
2019-02-11T12:20:34.938Z,17.9
2019-02-11T12:21:40.779Z,17.9
2019-02-11T12:22:42.135Z,17.8
2019-02-11T12:23:46.295Z,17.8
2019-02-11T12:24:47.638Z,17.8
2019-02-11T12:25:52.260Z,17.8
2019-02-11T12:26:53.952Z,17.8
2019-02-11T12:27:55.307Z,17.8
2019-02-11T12:28:56.685Z,17.8
2019-02-11T12:30:00.681Z,17.8
2019-02-11T12:31:02.733Z,17.8
2019-02-11T12:32:04.153Z,17.8
2019-02-11T12:33:05.550Z,17.8
2019-02-11T12:34:09.437Z,17.8
2019-02-11T12:35:11.799Z,17.9
2019-02-11T12:36:18.685Z,17.9
2019-02-11T12:37:21.074Z,17.9
2019-02-11T12:38:22.474Z,17.9
2019-02-11T12:39:25.150Z,17.9
2019-02-11T12:40:26.537Z,17.8
2019-02-11T12:41:27.892Z,17.7
2019-02-11T12:42:29.365Z,17.6
2019-02-11T12:43:30.754Z,17.5
2019-02-11T12:44:32.158Z,17.6
2019-02-11T12:45:33.506Z,17.6
2019-02-11T12:46:36.977Z,17.6
2019-02-11T12:47:40.742Z,17.6
2019-02-11T12:48:42.663Z,17.5
2019-02-11T12:49:47.186Z,17.6
2019-02-11T12:50:48.586Z,17.6
2019-02-11T12:51:49.902Z,17.6
2019-02-11T12:52:51.272Z,17.7
2019-02-11T12:53:52.888Z,17.8
2019-02-11T12:54:54.224Z,17.8
2019-02-11T12:55:55.597Z,17.9
2019-02-11T12:56:57.018Z,17.9
2019-02-11T12:57:58.334Z,17.9
2019-02-11T12:58:59.682Z,17.8
2019-02-11T13:00:01.113Z,17.7
2019-02-11T13:01:02.496Z,17.7
2019-02-11T13:02:03.898Z,17.7
2019-02-11T13:03:05.233Z,17.6
2019-02-11T13:04:06.621Z,17.4
2019-02-11T13:05:08.015Z,17.5
2019-02-11T13:06:09.641Z,17.5
2019-02-11T13:07:11.249Z,17.5
2019-02-11T13:08:13.168Z,17.4
2019-02-11T13:09:14.496Z,17.3
2019-02-11T13:10:16.085Z,17.3
2019-02-11T13:11:18.364Z,17.3
2019-02-11T13:12:20.010Z,17.4
2019-02-11T13:13:21.342Z,17.4
2019-02-11T13:14:22.655Z,17.4
2019-02-11T13:15:53.771Z,17.4
2019-02-11T13:17:14.622Z,17.3
2019-02-11T13:18:38.088Z,17.3
2019-02-11T13:19:41.196Z,17.4
2019-02-11T13:20:42.610Z,17.4
2019-02-11T13:21:43.919Z,17.4
2019-02-11T13:22:48.467Z,17.4
2019-02-11T13:23:49.844Z,17.4
2019-02-11T13:24:51.305Z,17.4
2019-02-11T13:25:52.887Z,17.4
2019-02-11T13:26:54.219Z,17.4
2019-02-11T13:27:56.702Z,17.4
2019-02-11T13:28:58.074Z,17.4
2019-02-11T13:29:59.606Z,17.4
2019-02-11T13:31:01.374Z,17.4
2019-02-11T13:32:04.982Z,17.4
2019-02-11T13:33:13.467Z,17.5
2019-02-11T13:34:15.064Z,17.5
2019-02-11T13:35:16.823Z,17.5
2019-02-11T13:36:18.301Z,17.5
2019-02-11T13:37:19.701Z,17.5
2019-02-11T13:38:21.402Z,17.4
2019-02-11T13:39:22.757Z,17.4
2019-02-11T13:40:24.858Z,17.4
2019-02-11T13:41:26.273Z,17.4
2019-02-11T13:42:27.632Z,17.4
2019-02-11T13:43:33.647Z,17.4
2019-02-11T13:44:34.968Z,17.5
2019-02-11T13:45:36.309Z,17.5
2019-02-11T13:46:37.987Z,17.5
2019-02-11T13:47:51.524Z,17.4
2019-02-11T13:49:01.395Z,17.4
2019-02-11T13:50:04.777Z,17.4
2019-02-11T13:51:08.762Z,17.4
2019-02-11T13:52:13.890Z,17.3
2019-02-11T13:53:15.247Z,17.4
2019-02-11T13:54:16.586Z,17.5
2019-02-11T13:55:17.968Z,17.5
2019-02-11T13:56:19.338Z,17.5
2019-02-11T13:57:20.772Z,17.5